sensor_id;sensor_type;location;lat;lon;timestamp;pressure;altitude;pressure_sealevel;temperature;humidity
3544;BME280;1786;52.870;9.578;2022-10-16T00:00:54;100048.63;;;26.46;49.14
3544;BME280;1786;52.870;9.578;2022-10-16T00:03:21;100049.25;;;26.61;48.70
3544;BME280;1786;52.870;9.578;2022-10-16T00:05:59;100069.19;;;26.73;48.34
3544;BME280;1786;52.870;9.578;2022-10-16T00:08:27;100062.78;;;26.48;48.64
3544;BME280;1786;52.870;9.578;2022-10-16T00:10:59;100061.03;;;26.15;49.26
3544;BME280;1786;52.870;9.578;2022-10-16T00:13:26;100063.91;;;26.27;48.95
3544;BME280;1786;52.870;9.578;2022-10-16T00:15:55;100064.94;;;26.32;49.14
3544;BME280;1786;52.870;9.578;2022-10-16T00:18:23;100059.06;;;26.49;48.82
3544;BME280;1786;52.870;9.578;2022-10-16T00:20:49;100068.50;;;26.26;49.13
3544;BME280;1786;52.870;9.578;2022-10-16T00:23:35;100067.84;;;26.38;48.96
3544;BME280;1786;52.870;9.578;2022-10-16T00:26:05;100061.44;;;26.19;49.15
3544;BME280;1786;52.870;9.578;2022-10-16T00:28:32;100061.19;;;26.33;48.96
3544;BME280;1786;52.870;9.578;2022-10-16T00:30:58;100068.63;;;26.58;48.17
3544;BME280;1786;52.870;9.578;2022-10-16T00:33:25;100071.00;;;26.28;48.70
3544;BME280;1786;52.870;9.578;2022-10-16T00:35:52;100074.81;;;25.87;49.30
3544;BME280;1786;52.870;9.578;2022-10-16T00:38:18;100081.00;;;26.34;48.90
3544;BME280;1786;52.870;9.578;2022-10-16T00:40:45;100083.44;;;26.49;48.08
3544;BME280;1786;52.870;9.578;2022-10-16T00:43:36;100088.72;;;26.17;48.77
3544;BME280;1786;52.870;9.578;2022-10-16T00:46:10;100094.78;;;26.19;48.72
3544;BME280;1786;52.870;9.578;2022-10-16T00:48:39;100088.53;;;26.19;48.92
3544;BME280;1786;52.870;9.578;2022-10-16T00:51:07;100090.78;;;26.35;48.28
3544;BME280;1786;52.870;9.578;2022-10-16T00:53:35;100085.59;;;26.27;48.41
3544;BME280;1786;52.870;9.578;2022-10-16T00:56:02;100088.56;;;25.99;48.67
3544;BME280;1786;52.870;9.578;2022-10-16T00:58:29;100086.09;;;25.90;49.31
3544;BME280;1786;52.870;9.578;2022-10-16T01:00:56;100093.34;;;25.90;49.15
3544;BME280;1786;52.870;9.578;2022-10-16T01:03:34;100095.84;;;26.11;48.25
3544;BME280;1786;52.870;9.578;2022-10-16T01:06:23;100094.81;;;26.06;48.33
3544;BME280;1786;52.870;9.578;2022-10-16T01:17:21;100115.41;;;26.00;48.56
3544;BME280;1786;52.870;9.578;2022-10-16T01:23:04;100110.22;;;25.85;48.45
3544;BME280;1786;52.870;9.578;2022-10-16T01:28:18;100112.47;;;25.62;49.20
3544;BME280;1786;52.870;9.578;2022-10-16T01:30:52;100119.13;;;25.33;49.47
3544;BME280;1786;52.870;9.578;2022-10-16T01:33:35;100117.50;;;24.97;50.05
3544;BME280;1786;52.870;9.578;2022-10-16T01:36:13;100122.91;;;24.97;50.01
3544;BME280;1786;52.870;9.578;2022-10-16T01:38:43;100118.28;;;25.25;49.72
3544;BME280;1786;52.870;9.578;2022-10-16T01:41:16;100119.97;;;25.46;48.96
3544;BME280;1786;52.870;9.578;2022-10-16T01:44:06;100127.28;;;25.66;48.86
3544;BME280;1786;52.870;9.578;2022-10-16T01:46:37;100126.84;;;25.69;48.68
3544;BME280;1786;52.870;9.578;2022-10-16T01:49:05;100128.09;;;25.53;48.93
3544;BME280;1786;52.870;9.578;2022-10-16T01:51:34;100128.63;;;25.22;49.82
3544;BME280;1786;52.870;9.578;2022-10-16T01:54:01;100126.56;;;25.24;49.41
3544;BME280;1786;52.870;9.578;2022-10-16T01:56:29;100125.47;;;25.05;49.83
3544;BME280;1786;52.870;9.578;2022-10-16T01:59:00;100130.47;;;25.08;50.15
3544;BME280;1786;52.870;9.578;2022-10-16T02:01:30;100117.50;;;24.97;50.37
3544;BME280;1786;52.870;9.578;2022-10-16T02:03:59;100116.19;;;25.34;49.18
3544;BME280;1786;52.870;9.578;2022-10-16T02:06:28;100122.84;;;25.45;48.83
3544;BME280;1786;52.870;9.578;2022-10-16T02:08:56;100121.81;;;25.53;48.65
3544;BME280;1786;52.870;9.578;2022-10-16T02:11:22;100125.13;;;25.35;49.05
3544;BME280;1786;52.870;9.578;2022-10-16T02:13:59;100120.56;;;25.29;49.60
3544;BME280;1786;52.870;9.578;2022-10-16T02:16:43;100126.34;;;25.19;49.27
3544;BME280;1786;52.870;9.578;2022-10-16T02:19:15;100129.75;;;25.41;49.36
3544;BME280;1786;52.870;9.578;2022-10-16T02:24:32;100123.69;;;25.25;49.54
3544;BME280;1786;52.870;9.578;2022-10-16T02:27:19;100121.31;;;25.02;50.08
3544;BME280;1786;52.870;9.578;2022-10-16T02:29:53;100130.25;;;25.10;49.33
3544;BME280;1786;52.870;9.578;2022-10-16T02:32:30;100137.06;;;24.99;49.48
3544;BME280;1786;52.870;9.578;2022-10-16T02:34:58;100142.03;;;24.89;49.86
3544;BME280;1786;52.870;9.578;2022-10-16T02:37:27;100143.91;;;24.88;50.05
3544;BME280;1786;52.870;9.578;2022-10-16T02:39:56;100141.84;;;24.90;50.10
3544;BME280;1786;52.870;9.578;2022-10-16T02:42:34;100138.09;;;24.91;49.97
3544;BME280;1786;52.870;9.578;2022-10-16T02:45:03;100128.66;;;24.39;51.04
3544;BME280;1786;52.870;9.578;2022-10-16T02:47:29;100125.63;;;24.49;50.74
3544;BME280;1786;52.870;9.578;2022-10-16T02:49:56;100130.31;;;24.68;50.34
3544;BME280;1786;52.870;9.578;2022-10-16T02:52:23;100117.00;;;24.38;51.27
3544;BME280;1786;52.870;9.578;2022-10-16T02:54:50;100120.50;;;24.60;50.80
3544;BME280;1786;52.870;9.578;2022-10-16T02:57:17;100113.53;;;24.10;51.76
3544;BME280;1786;52.870;9.578;2022-10-16T02:59:45;100110.75;;;24.03;52.05
3544;BME280;1786;52.870;9.578;2022-10-16T03:02:12;100119.41;;;23.92;52.62
3544;BME280;1786;52.870;9.578;2022-10-16T03:04:38;100114.34;;;24.10;51.91
3544;BME280;1786;52.870;9.578;2022-10-16T03:07:05;100114.09;;;24.05;52.21
3544;BME280;1786;52.870;9.578;2022-10-16T03:09:32;100108.72;;;24.05;51.86
3544;BME280;1786;52.870;9.578;2022-10-16T03:11:59;100115.47;;;24.23;51.68
3544;BME280;1786;52.870;9.578;2022-10-16T03:14:26;100112.22;;;23.78;52.65
3544;BME280;1786;52.870;9.578;2022-10-16T03:16:54;100109.66;;;23.26;53.97
3544;BME280;1786;52.870;9.578;2022-10-16T03:19:20;100119.22;;;23.72;53.40
3544;BME280;1786;52.870;9.578;2022-10-16T03:21:47;100113.25;;;23.55;53.83
3544;BME280;1786;52.870;9.578;2022-10-16T03:24:14;100121.38;;;23.77;53.71
3544;BME280;1786;52.870;9.578;2022-10-16T03:26:40;100122.09;;;23.70;53.81
3544;BME280;1786;52.870;9.578;2022-10-16T03:29:07;100124.91;;;23.77;53.50
3544;BME280;1786;52.870;9.578;2022-10-16T03:31:34;100121.19;;;23.63;54.12
3544;BME280;1786;52.870;9.578;2022-10-16T03:34:01;100107.97;;;22.89;55.52
3544;BME280;1786;52.870;9.578;2022-10-16T03:36:27;100119.94;;;23.16;55.03
3544;BME280;1786;52.870;9.578;2022-10-16T03:38:54;100115.94;;;23.55;54.41
3544;BME280;1786;52.870;9.578;2022-10-16T03:41:20;100115.19;;;23.61;54.30
3544;BME280;1786;52.870;9.578;2022-10-16T03:43:47;100109.06;;;23.52;54.59
3544;BME280;1786;52.870;9.578;2022-10-16T03:46:14;100108.97;;;23.03;55.76
3544;BME280;1786;52.870;9.578;2022-10-16T03:48:40;100117.81;;;23.33;55.30
3544;BME280;1786;52.870;9.578;2022-10-16T03:51:07;100122.72;;;23.08;56.20
3544;BME280;1786;52.870;9.578;2022-10-16T03:53:33;100117.94;;;22.74;57.17
3544;BME280;1786;52.870;9.578;2022-10-16T03:56:00;100113.28;;;22.97;56.80
3544;BME280;1786;52.870;9.578;2022-10-16T03:58:26;100116.88;;;22.89;56.36
3544;BME280;1786;52.870;9.578;2022-10-16T04:00:53;100119.50;;;23.34;55.63
3544;BME280;1786;52.870;9.578;2022-10-16T04:03:20;100121.47;;;22.44;58.10
3544;BME280;1786;52.870;9.578;2022-10-16T04:05:48;100126.06;;;22.95;56.85
3544;BME280;1786;52.870;9.578;2022-10-16T04:08:15;100133.97;;;22.97;56.75
3544;BME280;1786;52.870;9.578;2022-10-16T04:10:45;100128.69;;;23.03;56.26
3544;BME280;1786;52.870;9.578;2022-10-16T04:13:12;100135.19;;;23.09;56.39
3544;BME280;1786;52.870;9.578;2022-10-16T04:15:39;100145.13;;;23.08;56.76
3544;BME280;1786;52.870;9.578;2022-10-16T04:18:06;100147.41;;;23.91;54.80
3544;BME280;1786;52.870;9.578;2022-10-16T04:20:33;100149.13;;;22.98;56.81
3544;BME280;1786;52.870;9.578;2022-10-16T04:23:00;100163.59;;;23.26;56.62
3544;BME280;1786;52.870;9.578;2022-10-16T04:25:27;100166.38;;;23.18;56.94
3544;BME280;1786;52.870;9.578;2022-10-16T04:27:53;100178.75;;;23.49;55.35
3544;BME280;1786;52.870;9.578;2022-10-16T04:30:21;100166.75;;;23.15;56.50
3544;BME280;1786;52.870;9.578;2022-10-16T04:32:49;100171.94;;;23.53;55.43
3544;BME280;1786;52.870;9.578;2022-10-16T04:35:17;100166.09;;;23.49;55.51
3544;BME280;1786;52.870;9.578;2022-10-16T04:37:44;100164.34;;;23.63;55.16
3544;BME280;1786;52.870;9.578;2022-10-16T04:40:12;100163.69;;;23.76;55.31
3544;BME280;1786;52.870;9.578;2022-10-16T04:42:39;100175.34;;;23.77;55.16
3544;BME280;1786;52.870;9.578;2022-10-16T04:45:06;100170.22;;;23.88;54.56
3544;BME280;1786;52.870;9.578;2022-10-16T04:47:38;100169.88;;;23.55;55.16
3544;BME280;1786;52.870;9.578;2022-10-16T04:50:05;100174.63;;;23.89;54.95
3544;BME280;1786;52.870;9.578;2022-10-16T04:52:33;100179.16;;;23.89;54.62
3544;BME280;1786;52.870;9.578;2022-10-16T04:55:00;100180.28;;;23.37;55.82
3544;BME280;1786;52.870;9.578;2022-10-16T04:57:29;100181.22;;;23.87;54.64
3544;BME280;1786;52.870;9.578;2022-10-16T04:59:56;100180.28;;;24.23;53.87
3544;BME280;1786;52.870;9.578;2022-10-16T05:02:23;100176.16;;;23.77;55.10
3544;BME280;1786;52.870;9.578;2022-10-16T05:04:50;100171.78;;;23.97;54.88
3544;BME280;1786;52.870;9.578;2022-10-16T05:07:17;100170.94;;;23.75;55.03
3544;BME280;1786;52.870;9.578;2022-10-16T05:09:43;100178.00;;;23.98;54.80
3544;BME280;1786;52.870;9.578;2022-10-16T05:12:10;100185.19;;;24.12;54.38
3544;BME280;1786;52.870;9.578;2022-10-16T05:14:37;100200.97;;;24.15;54.16
3544;BME280;1786;52.870;9.578;2022-10-16T05:17:04;100206.38;;;24.15;53.82
3544;BME280;1786;52.870;9.578;2022-10-16T05:19:30;100194.25;;;24.05;54.58
3544;BME280;1786;52.870;9.578;2022-10-16T05:21:57;100195.81;;;24.21;54.28
3544;BME280;1786;52.870;9.578;2022-10-16T05:24:23;100189.03;;;24.25;54.22
3544;BME280;1786;52.870;9.578;2022-10-16T05:26:50;100194.84;;;24.28;53.74
3544;BME280;1786;52.870;9.578;2022-10-16T05:29:17;100194.53;;;24.16;54.32
3544;BME280;1786;52.870;9.578;2022-10-16T05:31:45;100198.69;;;24.40;53.79
3544;BME280;1786;52.870;9.578;2022-10-16T05:34:12;100192.78;;;23.81;55.41
3544;BME280;1786;52.870;9.578;2022-10-16T05:36:38;100196.63;;;23.93;54.92
3544;BME280;1786;52.870;9.578;2022-10-16T05:39:06;100191.47;;;23.33;56.49
3544;BME280;1786;52.870;9.578;2022-10-16T05:41:32;100196.69;;;23.05;57.27
3544;BME280;1786;52.870;9.578;2022-10-16T05:44:00;100199.94;;;23.52;55.61
3544;BME280;1786;52.870;9.578;2022-10-16T05:46:29;100203.50;;;23.01;57.63
3544;BME280;1786;52.870;9.578;2022-10-16T05:48:56;100205.88;;;23.84;54.82
3544;BME280;1786;52.870;9.578;2022-10-16T05:51:23;100202.50;;;23.75;55.81
3544;BME280;1786;52.870;9.578;2022-10-16T05:53:50;100188.78;;;23.98;54.87
3544;BME280;1786;52.870;9.578;2022-10-16T05:56:16;100200.38;;;23.92;54.99
3544;BME280;1786;52.870;9.578;2022-10-16T05:58:43;100207.94;;;24.03;55.05
3544;BME280;1786;52.870;9.578;2022-10-16T06:01:16;100201.75;;;23.66;56.04
3544;BME280;1786;52.870;9.578;2022-10-16T06:03:43;100196.94;;;23.62;55.61
3544;BME280;1786;52.870;9.578;2022-10-16T06:06:12;100204.72;;;23.35;56.50
3544;BME280;1786;52.870;9.578;2022-10-16T06:08:41;100211.94;;;23.86;55.93
3544;BME280;1786;52.870;9.578;2022-10-16T06:11:10;100211.19;;;24.20;54.81
3544;BME280;1786;52.870;9.578;2022-10-16T06:13:38;100225.28;;;24.15;54.96
3544;BME280;1786;52.870;9.578;2022-10-16T06:16:05;100223.69;;;24.49;54.65
3544;BME280;1786;52.870;9.578;2022-10-16T06:18:32;100228.47;;;24.26;55.22
3544;BME280;1786;52.870;9.578;2022-10-16T06:20:59;100233.47;;;24.29;55.07
3544;BME280;1786;52.870;9.578;2022-10-16T06:23:28;100237.72;;;24.59;54.36
3544;BME280;1786;52.870;9.578;2022-10-16T06:26:04;100245.09;;;24.79;53.70
3544;BME280;1786;52.870;9.578;2022-10-16T06:28:31;100238.84;;;24.22;55.09
3544;BME280;1786;52.870;9.578;2022-10-16T06:31:01;100230.22;;;24.61;55.03
3544;BME280;1786;52.870;9.578;2022-10-16T06:33:34;100236.22;;;24.07;55.45
3544;BME280;1786;52.870;9.578;2022-10-16T06:36:09;100233.78;;;24.12;56.51
3544;BME280;1786;52.870;9.578;2022-10-16T06:38:38;100246.25;;;24.63;56.80
3544;BME280;1786;52.870;9.578;2022-10-16T06:41:06;100261.22;;;26.03;53.65
3544;BME280;1786;52.870;9.578;2022-10-16T06:43:33;100268.13;;;26.59;50.71
3544;BME280;1786;52.870;9.578;2022-10-16T06:46:03;100264.19;;;27.40;49.01
3544;BME280;1786;52.870;9.578;2022-10-16T06:48:31;100268.28;;;26.91;49.77
3544;BME280;1786;52.870;9.578;2022-10-16T06:51:10;100266.22;;;26.33;50.81
3544;BME280;1786;52.870;9.578;2022-10-16T06:53:40;100264.34;;;26.40;50.76
3544;BME280;1786;52.870;9.578;2022-10-16T06:56:28;100268.13;;;26.72;50.05
3544;BME280;1786;52.870;9.578;2022-10-16T06:58:56;100276.84;;;26.48;50.42
3544;BME280;1786;52.870;9.578;2022-10-16T07:01:24;100283.75;;;26.44;50.97
3544;BME280;1786;52.870;9.578;2022-10-16T07:03:53;100285.84;;;26.68;50.42
3544;BME280;1786;52.870;9.578;2022-10-16T07:06:21;100285.63;;;26.76;50.28
3544;BME280;1786;52.870;9.578;2022-10-16T07:08:49;100292.28;;;26.14;51.69
3544;BME280;1786;52.870;9.578;2022-10-16T07:11:18;100287.22;;;25.98;51.74
3544;BME280;1786;52.870;9.578;2022-10-16T07:13:46;100302.91;;;26.09;51.83
3544;BME280;1786;52.870;9.578;2022-10-16T07:16:22;100309.78;;;26.45;51.12
3544;BME280;1786;52.870;9.578;2022-10-16T07:18:49;100307.31;;;26.23;53.21
3544;BME280;1786;52.870;9.578;2022-10-16T07:21:21;100309.97;;;27.03;52.32
3544;BME280;1786;52.870;9.578;2022-10-16T07:23:57;100318.50;;;28.17;49.50
3544;BME280;1786;52.870;9.578;2022-10-16T07:26:24;100327.44;;;29.06;48.01
3544;BME280;1786;52.870;9.578;2022-10-16T07:28:52;100342.94;;;30.39;46.17
3544;BME280;1786;52.870;9.578;2022-10-16T07:31:20;100345.19;;;30.12;45.40
3544;BME280;1786;52.870;9.578;2022-10-16T07:33:48;100362.13;;;30.33;45.02
3544;BME280;1786;52.870;9.578;2022-10-16T07:36:16;100357.47;;;29.36;46.49
3544;BME280;1786;52.870;9.578;2022-10-16T07:38:45;100352.63;;;29.20;46.64
3544;BME280;1786;52.870;9.578;2022-10-16T07:41:14;100366.38;;;29.00;47.50
3544;BME280;1786;52.870;9.578;2022-10-16T07:43:46;100369.34;;;28.98;47.36
3544;BME280;1786;52.870;9.578;2022-10-16T07:46:13;100371.50;;;28.64;47.34
3544;BME280;1786;52.870;9.578;2022-10-16T07:48:40;100374.91;;;28.21;49.02
3544;BME280;1786;52.870;9.578;2022-10-16T07:51:07;100369.41;;;28.91;48.60
3544;BME280;1786;52.870;9.578;2022-10-16T07:53:34;100373.03;;;28.85;48.63
3544;BME280;1786;52.870;9.578;2022-10-16T07:56:04;100381.13;;;30.39;48.56
3544;BME280;1786;52.870;9.578;2022-10-16T07:58:33;100389.63;;;31.32;44.91
3544;BME280;1786;52.870;9.578;2022-10-16T08:01:04;100389.31;;;32.50;43.94
3544;BME280;1786;52.870;9.578;2022-10-16T08:03:31;100412.72;;;34.35;42.07
3544;BME280;1786;52.870;9.578;2022-10-16T08:05:59;100421.88;;;35.53;39.28
3544;BME280;1786;52.870;9.578;2022-10-16T08:08:26;100422.25;;;36.86;39.20
3544;BME280;1786;52.870;9.578;2022-10-16T08:10:54;100443.19;;;38.14;37.50
3544;BME280;1786;52.870;9.578;2022-10-16T08:13:21;100436.66;;;39.12;35.46
3544;BME280;1786;52.870;9.578;2022-10-16T08:15:47;100446.09;;;40.08;34.09
3544;BME280;1786;52.870;9.578;2022-10-16T08:18:15;100455.78;;;41.00;34.19
3544;BME280;1786;52.870;9.578;2022-10-16T08:20:43;100453.06;;;40.05;34.23
3544;BME280;1786;52.870;9.578;2022-10-16T08:23:13;100453.88;;;40.81;33.27
3544;BME280;1786;52.870;9.578;2022-10-16T08:25:40;100471.38;;;40.96;33.06
3544;BME280;1786;52.870;9.578;2022-10-16T08:28:09;100469.72;;;40.95;32.99
3544;BME280;1786;52.870;9.578;2022-10-16T08:30:36;100474.44;;;40.94;32.65
3544;BME280;1786;52.870;9.578;2022-10-16T08:33:03;100467.56;;;41.11;32.51
3544;BME280;1786;52.870;9.578;2022-10-16T08:35:30;100461.66;;;39.26;34.12
3544;BME280;1786;52.870;9.578;2022-10-16T08:37:57;100462.78;;;38.96;34.52
3544;BME280;1786;52.870;9.578;2022-10-16T08:40:34;100468.53;;;37.40;36.02
3544;BME280;1786;52.870;9.578;2022-10-16T08:43:15;100461.31;;;35.69;38.31
3544;BME280;1786;52.870;9.578;2022-10-16T08:48:35;100461.69;;;35.45;38.92
3544;BME280;1786;52.870;9.578;2022-10-16T08:51:08;100464.00;;;35.16;38.73
3544;BME280;1786;52.870;9.578;2022-10-16T08:53:45;100468.44;;;36.28;38.70
3544;BME280;1786;52.870;9.578;2022-10-16T08:56:13;100465.69;;;35.27;39.49
3544;BME280;1786;52.870;9.578;2022-10-16T08:58:39;100470.88;;;36.09;38.17
3544;BME280;1786;52.870;9.578;2022-10-16T09:01:13;100469.47;;;36.06;38.13
3544;BME280;1786;52.870;9.578;2022-10-16T09:06:25;100473.34;;;36.15;38.17
3544;BME280;1786;52.870;9.578;2022-10-16T09:17:32;100490.25;;;36.55;38.16
3544;BME280;1786;52.870;9.578;2022-10-16T09:22:41;100482.63;;;35.99;37.52
3544;BME280;1786;52.870;9.578;2022-10-16T09:25:16;100493.63;;;35.99;38.06
3544;BME280;1786;52.870;9.578;2022-10-16T09:27:47;100494.41;;;36.57;37.74
3544;BME280;1786;52.870;9.578;2022-10-16T09:30:16;100491.88;;;35.78;38.00
3544;BME280;1786;52.870;9.578;2022-10-16T09:32:47;100497.88;;;36.22;37.75
3544;BME280;1786;52.870;9.578;2022-10-16T09:35:38;100498.16;;;36.36;37.68
3544;BME280;1786;52.870;9.578;2022-10-16T09:38:06;100500.50;;;37.00;37.38
3544;BME280;1786;52.870;9.578;2022-10-16T09:40:36;100488.59;;;35.86;38.21
3544;BME280;1786;52.870;9.578;2022-10-16T09:43:17;100500.91;;;36.31;37.91
3544;BME280;1786;52.870;9.578;2022-10-16T09:46:07;100490.78;;;35.79;37.58
3544;BME280;1786;52.870;9.578;2022-10-16T09:48:37;100501.34;;;37.27;36.92
3544;BME280;1786;52.870;9.578;2022-10-16T09:51:34;100510.72;;;36.06;37.11
3544;BME280;1786;52.870;9.578;2022-10-16T09:54:13;100513.16;;;36.86;36.42
3544;BME280;1786;52.870;9.578;2022-10-16T09:56:40;100510.25;;;36.25;36.79
3544;BME280;1786;52.870;9.578;2022-10-16T09:59:13;100511.84;;;35.63;37.69
3544;BME280;1786;52.870;9.578;2022-10-16T10:01:45;100509.13;;;35.68;37.22
3544;BME280;1786;52.870;9.578;2022-10-16T10:04:12;100518.34;;;35.89;37.30
3544;BME280;1786;52.870;9.578;2022-10-16T10:06:48;100521.28;;;36.30;36.59
3544;BME280;1786;52.870;9.578;2022-10-16T10:09:18;100520.03;;;36.83;36.17
3544;BME280;1786;52.870;9.578;2022-10-16T10:11:53;100521.78;;;36.11;36.77
3544;BME280;1786;52.870;9.578;2022-10-16T10:14:26;100511.44;;;34.57;38.23
3544;BME280;1786;52.870;9.578;2022-10-16T10:17:09;100501.53;;;34.78;37.83
3544;BME280;1786;52.870;9.578;2022-10-16T10:22:17;100502.66;;;33.50;40.13
3544;BME280;1786;52.870;9.578;2022-10-16T10:25:10;100500.25;;;33.37;39.24
3544;BME280;1786;52.870;9.578;2022-10-16T10:34:54;100522.41;;;33.52;39.69
3544;BME280;1786;52.870;9.578;2022-10-16T10:37:04;100525.38;;;32.43;41.22
3544;BME280;1786;52.870;9.578;2022-10-16T10:39:43;100531.03;;;32.24;42.06
3544;BME280;1786;52.870;9.578;2022-10-16T10:45:00;100524.59;;;31.13;43.71
3544;BME280;1786;52.870;9.578;2022-10-16T10:58:54;100545.50;;;32.25;42.94
3544;BME280;1786;52.870;9.578;2022-10-16T11:01:41;100561.66;;;32.50;41.71
3544;BME280;1786;52.870;9.578;2022-10-16T11:07:28;100557.19;;;30.96;43.08
3544;BME280;1786;52.870;9.578;2022-10-16T11:10:05;100545.94;;;31.04;43.24
3544;BME280;1786;52.870;9.578;2022-10-16T11:12:39;100552.94;;;30.81;44.06
3544;BME280;1786;52.870;9.578;2022-10-16T11:15:24;100555.28;;;30.96;43.46
3544;BME280;1786;52.870;9.578;2022-10-16T11:17:57;100559.38;;;31.29;43.41
3544;BME280;1786;52.870;9.578;2022-10-16T11:20:34;100560.88;;;31.43;43.02
3544;BME280;1786;52.870;9.578;2022-10-16T11:23:14;100555.03;;;30.68;43.31
3544;BME280;1786;52.870;9.578;2022-10-16T11:25:43;100563.88;;;31.65;42.68
3544;BME280;1786;52.870;9.578;2022-10-16T11:28:22;100556.00;;;30.73;44.48
3544;BME280;1786;52.870;9.578;2022-10-16T11:31:05;100567.22;;;31.37;44.32
3544;BME280;1786;52.870;9.578;2022-10-16T11:33:41;100582.41;;;31.99;43.04
3544;BME280;1786;52.870;9.578;2022-10-16T11:36:20;100580.22;;;32.36;43.07
3544;BME280;1786;52.870;9.578;2022-10-16T11:39:11;100584.56;;;32.61;42.86
3544;BME280;1786;52.870;9.578;2022-10-16T11:41:48;100590.88;;;32.61;42.30
3544;BME280;1786;52.870;9.578;2022-10-16T11:44:34;100586.56;;;32.13;42.57
3544;BME280;1786;52.870;9.578;2022-10-16T11:47:19;100596.94;;;32.63;42.56
3544;BME280;1786;52.870;9.578;2022-10-16T11:53:08;100598.00;;;33.03;41.60
3544;BME280;1786;52.870;9.578;2022-10-16T11:55:41;100585.72;;;32.76;41.89
3544;BME280;1786;52.870;9.578;2022-10-16T11:58:20;100592.16;;;32.70;41.95
3544;BME280;1786;52.870;9.578;2022-10-16T12:00:57;100589.91;;;32.67;41.37
3544;BME280;1786;52.870;9.578;2022-10-16T12:03:34;100591.88;;;32.43;41.69
3544;BME280;1786;52.870;9.578;2022-10-16T12:08:52;100602.16;;;32.93;41.18
3544;BME280;1786;52.870;9.578;2022-10-16T12:16:55;100609.56;;;32.52;41.54
3544;BME280;1786;52.870;9.578;2022-10-16T12:19:24;100602.72;;;33.07;41.02
3544;BME280;1786;52.870;9.578;2022-10-16T12:21:55;100607.31;;;32.61;41.25
3544;BME280;1786;52.870;9.578;2022-10-16T12:24:35;100613.75;;;32.43;40.94
3544;BME280;1786;52.870;9.578;2022-10-16T12:27:05;100607.38;;;32.14;41.16
3544;BME280;1786;52.870;9.578;2022-10-16T12:29:36;100606.88;;;31.28;42.63
3544;BME280;1786;52.870;9.578;2022-10-16T12:32:06;100614.34;;;31.86;
3544;BME280;1786;52.870;9.578;2022-10-16T12:35:16;100612.16;;;31.41;42.85
3544;BME280;1786;52.870;9.578;2022-10-16T12:37:44;100617.00;;;32.05;42.17
3544;BME280;1786;52.870;9.578;2022-10-16T12:42:53;100612.53;;;31.57;42.00
3544;BME280;1786;52.870;9.578;2022-10-16T12:45:33;100623.75;;;31.79;41.39
3544;BME280;1786;52.870;9.578;2022-10-16T12:48:04;100636.09;;;32.52;41.86
3544;BME280;1786;52.870;9.578;2022-10-16T12:50:36;100628.28;;;31.97;41.94
3544;BME280;1786;52.870;9.578;2022-10-16T12:53:19;100642.66;;;32.51;41.54
3544;BME280;1786;52.870;9.578;2022-10-16T12:56:01;100633.38;;;31.81;41.54
3544;BME280;1786;52.870;9.578;2022-10-16T13:04:10;100628.56;;;31.41;41.61
3544;BME280;1786;52.870;9.578;2022-10-16T13:12:11;100643.53;;;30.90;43.20
3544;BME280;1786;52.870;9.578;2022-10-16T13:18:14;100648.81;;;32.58;41.29
3544;BME280;1786;52.870;9.578;2022-10-16T13:28:39;100665.03;;;32.88;40.42
3544;BME280;1786;52.870;9.578;2022-10-16T13:31:21;100677.00;;;33.11;40.12
3544;BME280;1786;52.870;9.578;2022-10-16T13:33:55;100680.91;;;32.74;40.08
3544;BME280;1786;52.870;9.578;2022-10-16T13:36:27;100675.06;;;32.71;40.44
3544;BME280;1786;52.870;9.578;2022-10-16T13:39:01;100678.13;;;33.27;40.17
3544;BME280;1786;52.870;9.578;2022-10-16T13:41:32;100683.25;;;32.83;40.52
3544;BME280;1786;52.870;9.578;2022-10-16T13:43:59;100672.72;;;32.63;40.33
3544;BME280;1786;52.870;9.578;2022-10-16T13:46:26;100675.63;;;32.96;39.64
3544;BME280;1786;52.870;9.578;2022-10-16T13:49:04;100681.66;;;32.98;39.62
3544;BME280;1786;52.870;9.578;2022-10-16T13:51:32;100683.63;;;32.86;39.85
3544;BME280;1786;52.870;9.578;2022-10-16T13:53:59;100688.72;;;33.52;39.26
3544;BME280;1786;52.870;9.578;2022-10-16T13:56:31;100690.75;;;33.28;39.60
3544;BME280;1786;52.870;9.578;2022-10-16T13:59:04;100698.22;;;32.51;39.93
3544;BME280;1786;52.870;9.578;2022-10-16T14:01:34;100700.44;;;32.43;40.03
3544;BME280;1786;52.870;9.578;2022-10-16T14:04:09;100705.44;;;32.58;39.97
3544;BME280;1786;52.870;9.578;2022-10-16T14:06:41;100698.53;;;32.31;40.16
3544;BME280;1786;52.870;9.578;2022-10-16T14:09:17;100702.56;;;31.94;40.30
3544;BME280;1786;52.870;9.578;2022-10-16T14:11:53;100716.88;;;32.31;39.63
3544;BME280;1786;52.870;9.578;2022-10-16T14:14:20;100727.31;;;31.99;40.40
3544;BME280;1786;52.870;9.578;2022-10-16T14:16:47;100714.34;;;31.34;41.42
3544;BME280;1786;52.870;9.578;2022-10-16T14:19:25;100715.22;;;30.60;42.09
3544;BME280;1786;52.870;9.578;2022-10-16T14:21:53;100721.13;;;30.76;42.17
3544;BME280;1786;52.870;9.578;2022-10-16T14:24:32;100705.69;;;30.01;42.29
3544;BME280;1786;52.870;9.578;2022-10-16T14:27:00;100714.28;;;30.48;42.36
3544;BME280;1786;52.870;9.578;2022-10-16T14:29:29;100731.28;;;30.50;42.86
3544;BME280;1786;52.870;9.578;2022-10-16T14:32:05;100725.72;;;30.82;42.20
3544;BME280;1786;52.870;9.578;2022-10-16T14:34:37;100735.81;;;31.00;41.46
3544;BME280;1786;52.870;9.578;2022-10-16T14:37:14;100733.00;;;30.45;41.99
3544;BME280;1786;52.870;9.578;2022-10-16T14:39:53;100738.44;;;31.25;41.21
3544;BME280;1786;52.870;9.578;2022-10-16T14:42:23;100737.50;;;31.31;41.17
3544;BME280;1786;52.870;9.578;2022-10-16T14:44:53;100744.16;;;31.35;41.11
3544;BME280;1786;52.870;9.578;2022-10-16T14:47:23;100750.22;;;31.37;41.25
3544;BME280;1786;52.870;9.578;2022-10-16T14:49:54;100745.09;;;31.47;40.63
3544;BME280;1786;52.870;9.578;2022-10-16T14:52:22;100747.91;;;31.41;41.30
3544;BME280;1786;52.870;9.578;2022-10-16T14:54:49;100743.47;;;31.70;41.08
3544;BME280;1786;52.870;9.578;2022-10-16T14:57:18;100744.44;;;31.15;41.02
3544;BME280;1786;52.870;9.578;2022-10-16T14:59:46;100744.75;;;31.37;41.15
3544;BME280;1786;52.870;9.578;2022-10-16T15:02:25;100741.38;;;31.23;41.29
3544;BME280;1786;52.870;9.578;2022-10-16T15:04:53;100748.56;;;31.66;41.21
3544;BME280;1786;52.870;9.578;2022-10-16T15:07:20;100744.88;;;31.61;40.65